Time;durP1;ratioP1;P1;durP2;ratioP2;P2;SDS_P1;SDS_P2;PMS_P1;PMS_P2;Temp;Humidity;BMP_temperature;BMP_pressure;BME280_temperature;BME280_humidity;BME280_pressure;Samples;Min_cycle;Max_cycle;Signal;HPM_P1;HPM_P2
2023/12/02 00:01:34;;;;;;;27.98;9.85;;;;;;;-3.36;100.00;100963.19;5072463;28;20037;-67
2023/12/02 00:03:59;;;;;;;27.58;10.07;;;;;;;-3.35;100.00;100982.94;5065980;28;20039;-68
2023/12/02 00:06:24;;;;;;;28.13;10.90;;;;;;;-3.35;100.00;100977.53;5068282;28;20529;-68
2023/12/02 00:08:50;;;;;;;29.13;10.13;;;;;;;-3.46;100.00;100979.00;5062397;28;20102;-66
2023/12/02 00:11:15;;;;;;;27.52;11.05;;;;;;;-3.44;100.00;100982.34;5063752;28;20048;-66
2023/12/02 00:13:40;;;;;;;29.88;10.82;;;;;;;-3.45;100.00;100991.50;5053775;28;20021;-68
2023/12/02 00:16:06;;;;;;;28.67;10.60;;;;;;;-3.41;100.00;100979.22;5061616;28;20025;-67
2023/12/02 00:18:31;;;;;;;29.20;10.77;;;;;;;-3.37;100.00;100974.22;5057413;28;20453;-67
2023/12/02 00:20:57;;;;;;;29.38;11.52;;;;;;;-3.34;100.00;100974.63;5054144;28;20041;-65
2023/12/02 00:23:22;;;;;;;27.65;10.48;;;;;;;-3.27;100.00;100965.66;5053093;28;20104;-66
2023/12/02 00:25:47;;;;;;;29.77;11.13;;;;;;;-3.25;100.00;100975.22;5060576;28;20029;-66
2023/12/02 00:28:12;;;;;;;28.75;10.40;;;;;;;-3.25;100.00;100974.41;5069017;28;20050;-67
2023/12/02 00:30:38;;;;;;;27.88;10.57;;;;;;;-3.28;100.00;100967.56;5072505;28;20036;-68
2023/12/02 00:33:03;;;;;;;29.48;10.80;;;;;;;-3.25;100.00;100966.28;5064484;28;20069;-67
2023/12/02 00:35:28;;;;;;;31.33;11.20;;;;;;;-3.24;100.00;100963.38;5067357;28;20333;-68
2023/12/02 00:37:53;;;;;;;28.10;11.00;;;;;;;-3.19;100.00;100966.28;5065031;28;20030;-67
2023/12/02 00:40:19;;;;;;;29.08;10.98;;;;;;;-3.19;100.00;100970.84;5051916;28;20060;-67
2023/12/02 00:42:44;;;;;;;29.45;11.88;;;;;;;-3.18;100.00;100973.38;5063098;28;20037;-67
2023/12/02 00:45:10;;;;;;;27.60;10.40;;;;;;;-3.18;100.00;100978.78;5071533;28;20112;-67
2023/12/02 00:47:35;;;;;;;30.25;11.05;;;;;;;-3.15;100.00;100980.22;5062195;28;20049;-67
2023/12/02 00:50:00;;;;;;;30.52;10.52;;;;;;;-3.13;100.00;100978.16;5066782;28;20498;-67
2023/12/02 00:52:25;;;;;;;29.13;10.57;;;;;;;-3.09;100.00;100962.31;5057460;28;20079;-67
2023/12/02 00:54:51;;;;;;;29.42;10.60;;;;;;;-3.05;100.00;100968.94;5061032;28;20476;-67
2023/12/02 00:57:16;;;;;;;27.25;10.27;;;;;;;-3.06;100.00;100967.28;5072156;28;20134;-67
2023/12/02 00:59:41;;;;;;;28.17;10.80;;;;;;;-3.11;100.00;100958.97;5054006;28;20029;-67
2023/12/02 01:02:07;;;;;;;28.80;10.45;;;;;;;-3.05;100.00;100966.25;5056063;28;20113;-67
2023/12/02 01:04:32;;;;;;;31.80;10.77;;;;;;;-3.09;100.00;100967.72;5058115;28;20037;-68
2023/12/02 01:06:58;;;;;;;29.20;10.57;;;;;;;-3.03;100.00;100973.13;5062171;28;20049;-67
2023/12/02 01:09:23;;;;;;;28.90;10.27;;;;;;;-2.99;100.00;100957.28;5063818;28;20059;-68
2023/12/02 01:11:48;;;;;;;29.95;11.90;;;;;;;-2.98;100.00;100964.38;5071426;28;20097;-68
2023/12/02 01:14:13;;;;;;;32.65;11.90;;;;;;;-3.00;100.00;100966.44;5068154;28;20073;-67
2023/12/02 01:16:39;;;;;;;30.45;11.82;;;;;;;-3.06;100.00;100959.16;5071369;28;20025;-68
2023/12/02 01:19:04;;;;;;;29.58;12.35;;;;;;;-3.10;100.00;100961.47;5063993;28;20058;-67
2023/12/02 01:21:30;;;;;;;32.00;12.45;;;;;;;-3.14;100.00;100962.94;5048382;28;20033;-68
2023/12/02 01:23:55;;;;;;;32.17;12.85;;;;;;;-3.16;100.00;100963.13;5062448;28;20041;-68
2023/12/02 01:26:21;;;;;;;28.33;11.75;;;;;;;-3.12;100.00;100966.28;5060293;28;20059;-68
2023/12/02 01:28:46;;;;;;;29.08;11.35;;;;;;;-3.09;100.00;100963.13;5042657;28;20028;-68
2023/12/02 01:31:11;;;;;;;30.45;10.65;;;;;;;-3.10;100.00;100969.59;5071348;28;20107;-68
2023/12/02 01:33:37;;;;;;;30.10;11.93;;;;;;;-3.13;100.00;100975.44;5062272;28;20488;-68
2023/12/02 01:36:03;;;;;;;31.67;12.13;;;;;;;-3.18;100.00;100975.22;5071298;28;20028;-68
2023/12/02 01:38:29;;;;;;;29.55;11.32;;;;;;;-3.29;100.00;100979.41;5051104;28;20048;-68
2023/12/02 01:40:54;;;;;;;29.67;11.63;;;;;;;-3.29;100.00;100980.22;5062409;28;20025;-68
2023/12/02 01:43:25;;;;;;;30.48;11.07;;;;;;;-3.36;100.00;100982.13;5059727;28;20257;-67
2023/12/02 01:45:51;;;;;;;32.47;12.57;;;;;;;-3.41;100.00;100978.38;5044071;28;20044;-67
2023/12/02 01:48:18;;;;;;;29.02;10.75;;;;;;;-3.40;100.00;100991.69;5052271;28;20484;-68
2023/12/02 01:50:44;;;;;;;28.40;10.93;;;;;;;-3.38;100.00;100986.91;5070801;28;20036;-68
2023/12/02 01:53:10;;;;;;;29.77;10.90;;;;;;;-3.36;100.00;100989.44;5068719;28;20029;-65
2023/12/02 01:55:35;;;;;;;31.45;12.82;;;;;;;-3.42;100.00;100996.50;5055215;28;20044;-67
2023/12/02 01:58:00;;;;;;;31.00;13.43;;;;;;;-3.48;100.00;101000.88;5068898;28;20051;-67
2023/12/02 02:00:26;;;;;;;30.90;11.75;;;;;;;-3.45;100.00;100999.63;5061392;28;20043;-68
2023/12/02 02:02:51;;;;;;;30.33;11.27;;;;;;;-3.42;100.00;100993.78;5050898;28;20472;-69
2023/12/02 02:05:16;;;;;;;30.55;11.75;;;;;;;-3.40;100.00;101004.41;5063305;28;20032;-69
2023/12/02 02:07:41;;;;;;;28.42;10.73;;;;;;;-3.41;100.00;101000.03;5070449;28;20119;-69
2023/12/02 02:10:07;;;;;;;30.30;11.23;;;;;;;-3.50;100.00;100996.72;5058029;28;20147;-69
2023/12/02 02:12:33;;;;;;;30.73;11.65;;;;;;;-3.53;100.00;101000.66;5051417;28;20075;-69
2023/12/02 02:14:58;;;;;;;29.83;10.95;;;;;;;-3.49;100.00;100998.34;5059696;28;20035;-69
2023/12/02 02:17:23;;;;;;;29.98;11.73;;;;;;;-3.46;100.00;100993.38;5070185;28;20021;-69
2023/12/02 02:19:49;;;;;;;29.70;11.43;;;;;;;-3.43;100.00;100989.44;5059889;28;20081;-69
2023/12/02 02:22:14;;;;;;;30.00;10.93;;;;;;;-3.37;100.00;100996.69;5050282;28;20078;-69
2023/12/02 02:24:40;;;;;;;31.52;12.25;;;;;;;-3.33;100.00;101000.66;5057476;28;20473;-69
2023/12/02 02:27:05;;;;;;;27.58;10.65;;;;;;;-3.34;100.00;100996.28;5049874;28;20040;-68
2023/12/02 02:29:30;;;;;;;28.08;11.77;;;;;;;-3.33;100.00;100984.44;5057155;28;20523;-69
2023/12/02 02:31:56;;;;;;;27.80;10.25;;;;;;;-3.35;100.00;100991.91;5069895;28;20032;-69
2023/12/02 02:34:21;;;;;;;30.58;12.00;;;;;;;-3.37;100.00;100988.56;5061162;28;20456;-67
2023/12/02 02:36:47;;;;;;;29.10;10.93;;;;;;;-3.36;100.00;100995.66;5049489;28;20033;-67
2023/12/02 02:39:12;;;;;;;28.30;10.63;;;;;;;-3.41;100.00;100987.34;5059866;28;20143;-67
2023/12/02 02:41:37;;;;;;;31.30;12.98;;;;;;;-3.38;100.00;100992.31;5054920;28;20036;-67
2023/12/02 02:44:03;;;;;;;29.75;11.27;;;;;;;-3.40;100.00;100997.09;5058815;28;20087;-67
2023/12/02 02:46:28;;;;;;;29.33;10.88;;;;;;;-3.39;100.00;100993.34;5070326;28;20064;-68
2023/12/02 02:48:53;;;;;;;28.63;10.82;;;;;;;-3.41;100.00;100997.31;5058004;28;20016;-67
2023/12/02 02:51:19;;;;;;;29.38;11.18;;;;;;;-3.45;100.00;100994.19;5070538;28;20026;-67
2023/12/02 02:53:44;;;;;;;28.05;10.32;;;;;;;-3.43;100.00;100994.00;5051843;28;20052;-66
2023/12/02 02:56:10;;;;;;;29.00;10.48;;;;;;;-3.46;100.00;100996.09;5049701;28;20132;-68
2023/12/02 02:58:36;;;;;;;26.50;10.25;;;;;;;-3.40;100.00;100997.09;5049161;28;20103;-66
2023/12/02 03:01:02;;;;;;;28.75;11.02;;;;;;;-3.38;100.00;101015.84;5049282;28;20048;-68
2023/12/02 03:03:28;;;;;;;27.33;9.57;;;;;;;-3.41;100.00;101025.22;5051776;28;20029;-67
2023/12/02 03:05:54;;;;;;;29.58;9.93;;;;;;;-3.43;100.00;101030.00;5049019;28;20053;-67
2023/12/02 03:08:19;;;;;;;28.30;10.60;;;;;;;-3.44;100.00;101020.22;5048986;28;20032;-67
2023/12/02 03:10:48;;;;;;;29.08;11.18;;;;;;;-3.50;100.00;101030.00;5054988;28;20434;-67
2023/12/02 03:13:13;;;;;;;28.40;11.20;;;;;;;-3.43;100.00;101026.44;5063387;28;20024;-67
2023/12/02 03:15:38;;;;;;;29.00;11.07;;;;;;;-3.45;100.00;101023.97;5070186;28;20085;-67
2023/12/02 03:18:04;;;;;;;28.52;10.63;;;;;;;-3.43;100.00;101030.00;5062213;28;20021;-68
2023/12/02 03:20:29;;;;;;;28.20;9.90;;;;;;;-3.41;100.00;101021.66;5053161;28;20488;-68
2023/12/02 03:22:54;;;;;;;28.17;10.40;;;;;;;-3.40;100.00;101032.28;5052971;28;20335;-68
2023/12/02 03:25:20;;;;;;;29.23;10.65;;;;;;;-3.39;100.00;101006.88;5061311;28;20025;-68
2023/12/02 03:27:45;;;;;;;28.70;10.85;;;;;;;-3.39;100.00;101023.13;5065009;28;20064;-68
2023/12/02 03:30:12;;;;;;;28.98;10.35;;;;;;;-3.41;100.00;101013.56;5051916;28;20033;-68
2023/12/02 03:32:41;;;;;;;29.88;10.48;;;;;;;-3.42;100.00;101018.16;5061514;28;20582;-68
2023/12/02 03:35:08;;;;;;;27.73;11.10;;;;;;;-3.39;100.00;101023.13;5053261;28;20117;-67
2023/12/02 03:37:34;;;;;;;29.13;10.35;;;;;;;-3.35;100.00;101015.41;5055713;28;20021;-67
2023/12/02 03:40:00;;;;;;;28.00;10.25;;;;;;;-3.46;100.00;101047.50;5056474;28;20033;-67
2023/12/02 03:42:25;;;;;;;29.90;10.88;;;;;;;-3.38;100.00;101005.03;5054429;28;20100;-67
2023/12/02 03:44:50;;;;;;;30.00;11.27;;;;;;;-3.40;100.00;101034.97;5052794;28;20064;-69
2023/12/02 03:47:15;;;;;;;28.70;10.30;;;;;;;-3.39;100.00;101044.75;5052874;28;20108;-68
2023/12/02 03:49:41;;;;;;;27.77;10.05;;;;;;;-3.38;100.00;101035.59;5055615;28;20035;-68
2023/12/02 03:52:06;;;;;;;27.75;10.52;;;;;;;-3.31;100.00;101027.50;5059674;28;20529;-68
2023/12/02 03:54:31;;;;;;;31.42;11.43;;;;;;;-3.30;100.00;101029.16;5055836;28;20477;-68
2023/12/02 03:56:57;;;;;;;27.20;11.13;;;;;;;-3.30;100.00;101024.56;5054517;28;20063;-68
2023/12/02 03:59:22;;;;;;;28.08;11.00;;;;;;;-3.25;100.00;101028.53;5054474;28;20726;-68
2023/12/02 04:01:47;;;;;;;27.98;9.77;;;;;;;-3.23;100.00;101040.81;5053916;28;20484;-67
2023/12/02 04:04:13;;;;;;;27.08;10.00;;;;;;;-3.21;100.00;101046.84;5066030;28;20032;-67
2023/12/02 04:06:38;;;;;;;30.23;10.40;;;;;;;-3.19;100.00;101050.19;5074571;28;20044;-67
2023/12/02 04:09:05;;;;;;;29.75;9.80;;;;;;;-3.18;100.00;101051.00;5059782;28;20024;-66
2023/12/02 04:11:31;;;;;;;27.42;9.73;;;;;;;-3.15;100.00;101047.88;5053849;28;20085;-67
2023/12/02 04:13:56;;;;;;;28.88;10.27;;;;;;;-3.14;100.00;101033.31;5041074;28;20100;-67
2023/12/02 04:16:22;;;;;;;27.98;10.48;;;;;;;-3.09;100.00;101049.75;5034567;28;20040;-67
2023/12/02 04:18:47;;;;;;;27.83;10.60;;;;;;;-3.10;100.00;101042.66;5045901;28;20488;-66
2023/12/02 04:21:13;;;;;;;29.55;10.40;;;;;;;-3.06;100.00;101046.63;5054460;28;20423;-67
2023/12/02 04:23:38;;;;;;;27.27;10.77;;;;;;;-3.02;100.00;101055.97;5051899;28;20582;-68
2023/12/02 04:26:06;;;;;;;28.05;10.52;;;;;;;-3.03;100.00;101059.75;5054616;28;20065;-68
2023/12/02 04:28:32;;;;;;;28.00;10.40;;;;;;;-3.07;100.00;101071.19;5062004;28;20036;-67
2023/12/02 04:30:58;;;;;;;27.80;10.23;;;;;;;-3.19;100.00;101061.00;5064447;28;20052;-67
2023/12/02 04:33:23;;;;;;;28.90;10.15;;;;;;;-3.15;100.00;101066.81;5063906;28;20029;-68
2023/12/02 04:35:49;;;;;;;30.58;11.13;;;;;;;-3.12;100.00;101055.59;5070144;28;20029;-68
2023/12/02 04:38:16;;;;;;;30.48;12.18;;;;;;;-3.10;100.00;101068.91;5059758;28;20020;-68
2023/12/02 04:40:41;;;;;;;29.60;11.07;;;;;;;-3.13;100.00;101070.16;5064075;28;20025;-68
2023/12/02 04:43:06;;;;;;;28.63;10.77;;;;;;;-3.10;100.00;101063.50;5064771;28;20025;-67
2023/12/02 04:45:32;;;;;;;27.33;10.35;;;;;;;-3.09;100.00;101067.88;5064068;28;20120;-67
2023/12/02 04:47:57;;;;;;;27.00;10.48;;;;;;;-3.10;100.00;101066.19;5064634;28;20028;-66
2023/12/02 04:50:22;;;;;;;30.33;11.23;;;;;;;-3.09;100.00;101076.00;5065186;28;20051;-68
2023/12/02 04:52:48;;;;;;;27.70;10.05;;;;;;;-3.10;100.00;101063.50;5068060;28;20033;-68
2023/12/02 04:55:14;;;;;;;28.02;9.57;;;;;;;-3.06;100.00;101060.16;5070258;28;20121;-68
2023/12/02 04:57:39;;;;;;;26.50;10.27;;;;;;;-3.02;100.00;101061.38;5083467;28;20059;-68
2023/12/02 05:00:14;;;;;;;29.20;10.80;;;;;;;-2.98;100.00;101075.34;5069743;28;20380;-67
2023/12/02 05:02:43;;;;;;;31.15;10.60;;;;;;;-2.96;100.00;101075.97;5063947;28;20029;-67
2023/12/02 05:05:09;;;;;;;28.40;10.38;;;;;;;-2.98;100.00;101062.63;5064735;28;20052;-69
2023/12/02 05:07:35;;;;;;;30.27;11.93;;;;;;;-3.00;100.00;101072.03;5064444;28;20500;-66
2023/12/02 05:10:01;;;;;;;30.85;11.55;;;;;;;-3.02;100.00;101077.63;5069691;28;20045;-66
2023/12/02 05:12:26;;;;;;;26.85;10.32;;;;;;;-2.99;100.00;101081.81;5060083;28;20033;-67
2023/12/02 05:14:51;;;;;;;26.17;9.23;;;;;;;-2.99;100.00;101074.50;5066178;28;20044;-67
2023/12/02 05:17:17;;;;;;;27.42;10.52;;;;;;;-2.99;100.00;101076.41;5076894;28;20043;-67
2023/12/02 05:19:43;;;;;;;30.83;11.77;;;;;;;-3.01;100.00;101062.22;5064656;28;20481;-66
2023/12/02 05:22:08;;;;;;;31.70;12.05;;;;;;;-3.04;100.00;101081.59;5061258;28;20155;-66
2023/12/02 05:24:33;;;;;;;27.23;10.50;;;;;;;-3.08;100.00;101080.38;5066338;28;20093;-67
2023/12/02 05:26:59;;;;;;;29.35;11.50;;;;;;;-3.07;100.00;101088.25;5058368;28;20048;-68
2023/12/02 05:29:24;;;;;;;27.67;10.10;;;;;;;-3.09;100.00;101092.22;5071452;28;20064;-68
2023/12/02 05:31:49;;;;;;;27.05;10.32;;;;;;;-3.08;100.00;101107.44;5070554;28;20040;-67
2023/12/02 05:34:15;;;;;;;28.48;11.38;;;;;;;-3.18;100.00;101105.97;5065433;28;20024;-67
2023/12/02 05:36:40;;;;;;;28.48;11.35;;;;;;;-3.18;100.00;101108.69;5070946;28;20095;-67
2023/12/02 05:39:05;;;;;;;29.88;11.55;;;;;;;-3.21;100.00;101110.97;5054550;28;20049;-67
2023/12/02 05:41:31;;;;;;;30.15;11.35;;;;;;;-3.27;100.00;101109.94;5057224;28;20472;-67
2023/12/02 05:43:56;;;;;;;28.45;10.40;;;;;;;-3.32;100.00;101112.41;5074076;28;20341;-67
2023/12/02 05:46:21;;;;;;;29.23;10.68;;;;;;;-3.35;100.00;101110.94;5073597;28;20029;-68
2023/12/02 05:48:47;;;;;;;28.15;10.60;;;;;;;-3.40;100.00;101116.13;5053023;28;20073;-68
2023/12/02 05:51:13;;;;;;;27.83;10.65;;;;;;;-3.39;100.00;101117.81;5052830;28;20032;-67
2023/12/02 05:53:39;;;;;;;28.35;10.48;;;;;;;-3.40;100.00;101113.44;5065454;28;20033;-67
2023/12/02 05:56:06;;;;;;;27.90;10.55;;;;;;;-3.40;100.00;101112.59;5072733;28;20116;-66
2023/12/02 05:58:31;;;;;;;26.48;10.60;;;;;;;-3.37;100.00;101104.09;5058322;28;20032;-67
2023/12/02 06:00:56;;;;;;;28.17;9.73;;;;;;;-3.35;100.00;101108.25;5052703;28;20541;-67
2023/12/02 06:03:22;;;;;;;30.02;10.70;;;;;;;-3.33;100.00;101111.59;5054733;28;20031;-66
2023/12/02 06:05:47;;;;;;;29.55;11.20;;;;;;;-3.35;100.00;101102.84;5057230;28;20551;-66
2023/12/02 06:08:12;;;;;;;28.25;10.65;;;;;;;-3.30;100.00;101108.44;5051787;28;20074;-67
2023/12/02 06:10:38;;;;;;;29.67;11.25;;;;;;;-3.29;100.00;101115.53;5051950;28;20789;-67
2023/12/02 06:13:03;;;;;;;27.67;9.77;;;;;;;-3.29;100.00;101109.28;5050583;28;20033;-66
2023/12/02 06:15:28;;;;;;;29.60;11.27;;;;;;;-3.30;100.00;101115.75;5050294;28;20037;-66
2023/12/02 06:17:57;;;;;;;28.63;10.38;;;;;;;-3.33;100.00;101103.47;5051857;28;20769;-66
2023/12/02 06:20:29;;;;;;;30.63;11.95;;;;;;;-3.26;100.00;101116.16;5050128;28;20031;-66
2023/12/02 06:22:54;;;;;;;29.95;11.38;;;;;;;-3.24;100.00;101114.09;5050316;28;20560;-66
2023/12/02 06:25:19;;;;;;;30.35;12.00;;;;;;;-3.30;100.00;101113.03;5058041;28;20124;-65
2023/12/02 06:27:45;;;;;;;30.45;12.18;;;;;;;-3.26;100.00;101121.56;5050287;28;20036;-66
2023/12/02 06:30:12;;;;;;;29.70;11.55;;;;;;;-3.23;100.00;101130.09;5049615;28;20029;-66
2023/12/02 06:32:37;;;;;;;29.80;11.68;;;;;;;-3.21;100.00;101138.03;5060039;28;20028;-66
2023/12/02 06:35:04;;;;;;;29.83;10.93;;;;;;;-3.19;100.00;101138.63;5062846;28;20104;-66
2023/12/02 06:37:29;;;;;;;33.42;12.88;;;;;;;-3.23;100.00;101138.22;5055170;28;20033;-66
2023/12/02 06:39:54;;;;;;;28.02;11.23;;;;;;;-3.22;100.00;101133.66;5048903;28;20509;-66
2023/12/02 06:42:20;;;;;;;29.95;11.20;;;;;;;-3.22;100.00;101139.88;5049833;28;20029;-66
2023/12/02 06:44:45;;;;;;;29.80;11.13;;;;;;;-3.22;100.00;101134.47;5041430;28;20112;-64
2023/12/02 06:47:10;;;;;;;29.10;11.63;;;;;;;-3.22;100.00;101144.47;5029273;28;20037;-64
2023/12/02 06:49:36;;;;;;;29.80;12.00;;;;;;;-3.23;100.00;101140.94;5036184;28;20137;-64
2023/12/02 06:52:01;;;;;;;30.80;11.90;;;;;;;-3.24;100.00;101141.13;5048352;28;20048;-64
2023/12/02 06:54:27;;;;;;;31.17;11.80;;;;;;;-3.22;100.00;101156.13;5054510;28;20060;-64
2023/12/02 06:56:52;;;;;;;33.88;13.50;;;;;;;-3.17;100.00;101155.50;5053673;28;20028;-64
2023/12/02 06:59:17;;;;;;;30.70;12.70;;;;;;;-3.11;100.00;101167.38;5049035;28;20113;-64
2023/12/02 07:01:43;;;;;;;33.05;13.13;;;;;;;-3.13;100.00;101159.47;5069010;28;20035;-64
2023/12/02 07:04:08;;;;;;;32.42;13.68;;;;;;;-3.08;100.00;101165.09;5065457;28;20473;-65
2023/12/02 07:06:33;;;;;;;30.45;13.23;;;;;;;-3.06;100.00;101163.00;5048813;28;20049;-63
2023/12/02 07:08:59;;;;;;;34.58;14.77;;;;;;;-3.05;100.00;101164.69;5051138;28;20024;-64
2023/12/02 07:11:24;;;;;;;30.83;12.45;;;;;;;-3.04;100.00;101171.78;5054343;28;20032;-65
2023/12/02 07:13:50;;;;;;;30.25;12.45;;;;;;;-3.03;100.00;101183.41;5056235;28;20064;-64
2023/12/02 07:16:16;;;;;;;30.08;11.68;;;;;;;-3.06;100.00;101178.41;5049007;28;20045;-64
2023/12/02 07:18:42;;;;;;;29.55;11.48;;;;;;;-3.07;100.00;101188.41;5048106;28;20487;-65
2023/12/02 07:21:07;;;;;;;30.60;12.45;;;;;;;-3.14;100.00;101185.69;5052628;28;20536;-65
2023/12/02 07:23:33;;;;;;;29.95;12.02;;;;;;;-3.07;100.00;101198.41;5069222;28;20397;-64
2023/12/02 07:25:59;;;;;;;29.83;11.73;;;;;;;-3.10;100.00;101196.94;5050377;28;20583;-64
2023/12/02 07:28:25;;;;;;;31.23;11.40;;;;;;;-3.11;100.00;101203.38;5063501;28;20495;-63
2023/12/02 07:30:50;;;;;;;31.05;11.05;;;;;;;-3.14;100.00;101198.41;5061758;28;20036;-64
2023/12/02 07:33:17;;;;;;;30.02;10.98;;;;;;;-3.18;100.00;101205.25;5051338;28;20660;-65
2023/12/02 07:35:43;;;;;;;31.40;12.35;;;;;;;-3.24;100.00;101204.19;5053560;28;20029;-65
2023/12/02 07:38:08;;;;;;;32.35;12.32;;;;;;;-3.27;100.00;101211.91;5049185;28;20040;-65
2023/12/02 07:40:35;;;;;;;30.73;12.20;;;;;;;-3.29;100.00;101212.13;5051218;28;20437;-65
2023/12/02 07:43:00;;;;;;;29.92;12.27;;;;;;;-3.27;100.00;101220.03;5049184;28;20025;-65
2023/12/02 07:45:26;;;;;;;30.40;12.18;;;;;;;-3.28;100.00;101208.38;5034341;28;20447;-65
2023/12/02 07:47:51;;;;;;;30.52;12.13;;;;;;;-3.26;100.00;101218.97;5029264;28;20088;-65
2023/12/02 07:50:16;;;;;;;32.08;12.57;;;;;;;-3.29;100.00;101225.66;5043663;28;20111;-65
2023/12/02 07:52:42;;;;;;;29.70;11.98;;;;;;;-3.34;100.00;101220.84;5052254;28;20108;-65
2023/12/02 07:55:07;;;;;;;31.10;12.27;;;;;;;-3.36;100.00;101220.22;5055352;28;20056;-65
2023/12/02 07:57:33;;;;;;;31.23;13.20;;;;;;;-3.40;100.00;101213.53;5050606;28;20083;-64
2023/12/02 07:59:58;;;;;;;32.10;12.65;;;;;;;-3.42;100.00;101223.75;5052729;28;20112;-64
2023/12/02 08:02:24;;;;;;;30.65;11.25;;;;;;;-3.45;100.00;101221.44;5056887;28;20102;-64
2023/12/02 08:04:49;;;;;;;30.23;11.43;;;;;;;-3.45;100.00;101226.84;5065309;28;20035;-64
2023/12/02 08:07:14;;;;;;;30.05;12.90;;;;;;;-3.44;100.00;101225.81;5062652;28;20088;-64
2023/12/02 08:09:41;;;;;;;31.15;12.38;;;;;;;-3.40;100.00;101232.47;5056730;28;20021;-64
2023/12/02 08:12:06;;;;;;;35.60;14.90;;;;;;;-3.34;100.00;101242.50;5072474;28;20036;-64
2023/12/02 08:14:32;;;;;;;31.15;12.60;;;;;;;-3.27;100.00;101247.06;5058120;28;20021;-65
2023/12/02 08:16:57;;;;;;;32.90;13.63;;;;;;;-3.19;100.00;101247.72;5036829;28;20032;-66
2023/12/02 08:19:22;;;;;;;35.70;15.82;;;;;;;-3.09;100.00;101247.31;5058223;28;20024;-65
2023/12/02 08:21:48;;;;;;;33.97;14.05;;;;;;;-3.00;100.00;101247.97;5057126;28;20029;-66
2023/12/02 08:24:13;;;;;;;32.17;12.73;;;;;;;-2.91;100.00;101252.16;5053230;28;20126;-68
2023/12/02 08:26:38;;;;;;;33.15;13.73;;;;;;;-2.84;100.00;101249.47;5056455;28;20033;-66
2023/12/02 08:29:04;;;;;;;32.53;12.82;;;;;;;-2.75;100.00;101261.75;5051798;28;20120;-67
2023/12/02 08:31:30;;;;;;;33.85;13.38;;;;;;;-2.63;100.00;101264.69;5052317;28;20025;-67
2023/12/02 08:33:55;;;;;;;30.90;12.85;;;;;;;-2.54;100.00;101266.13;5065284;28;20063;-65
2023/12/02 08:36:21;;;;;;;34.15;13.60;;;;;;;-2.49;100.00;101264.66;5072221;28;20056;-66
2023/12/02 08:38:46;;;;;;;30.45;12.40;;;;;;;-2.42;100.00;101266.34;5070315;28;20047;-65
2023/12/02 08:41:11;;;;;;;32.08;12.80;;;;;;;-2.40;100.00;101255.28;5062427;28;20551;-65
2023/12/02 08:43:37;;;;;;;33.75;13.70;;;;;;;-2.34;100.00;101265.31;5062329;28;20455;-65
2023/12/02 08:46:02;;;;;;;32.05;13.55;;;;;;;-2.32;100.00;101271.34;5052734;28;20075;-66
2023/12/02 08:48:28;;;;;;;35.35;12.95;;;;;;;-2.25;100.00;101279.44;5060109;28;20552;-66
2023/12/02 08:50:53;;;;;;;31.73;12.63;;;;;;;-2.24;100.00;101278.41;5055136;28;20052;-65
2023/12/02 08:53:18;;;;;;;34.60;13.95;;;;;;;-2.25;100.00;101280.31;5063553;28;20134;-66
2023/12/02 08:55:44;;;;;;;32.70;12.60;;;;;;;-2.25;100.00;101280.31;5064273;28;20040;-65
2023/12/02 08:58:09;;;;;;;34.20;13.43;;;;;;;-2.25;100.00;101284.88;5059576;28;20021;-65
2023/12/02 09:00:34;;;;;;;37.53;15.02;;;;;;;-2.32;100.00;101271.34;5050381;28;20112;-66
2023/12/02 09:03:00;;;;;;;35.35;14.20;;;;;;;-2.28;100.00;101280.72;5061539;28;20025;-66
2023/12/02 09:05:25;;;;;;;32.60;13.18;;;;;;;-2.29;100.00;101283.66;5065684;28;20032;-65
2023/12/02 09:07:51;;;;;;;33.30;13.77;;;;;;;-2.31;100.00;101275.69;5063400;28;20536;-65
2023/12/02 09:10:16;;;;;;;32.97;13.57;;;;;;;-2.35;100.00;101291.56;5050201;28;20554;-64
2023/12/02 09:12:42;;;;;;;34.17;14.32;;;;;;;-2.32;100.00;101286.75;5055560;28;20045;-66
2023/12/02 09:15:28;;;;;;;36.97;14.45;;;;;;;-2.33;100.00;101280.53;5050482;28;20102;-65
2023/12/02 09:18:10;;;;;;;32.50;14.45;;;;;;;-2.28;100.00;101291.56;5056017;28;20094;-65
2023/12/02 09:20:45;;;;;;;38.75;16.05;;;;;;;-2.23;100.00;101296.34;5052463;28;20383;-66
2023/12/02 09:23:12;;;;;;;35.03;14.80;;;;;;;-2.17;100.00;101298.22;5047226;28;20029;-65
2023/12/02 09:25:39;;;;;;;34.05;14.77;;;;;;;-2.14;100.00;101297.78;5049871;28;20166;-66
2023/12/02 09:28:14;;;;;;;32.70;13.82;;;;;;;-2.08;100.00;101296.94;5058539;28;20025;-66
2023/12/02 09:30:40;;;;;;;38.45;17.23;;;;;;;-1.96;100.00;101304.44;5066021;28;20028;-66
2023/12/02 09:33:06;;;;;;;36.00;14.02;;;;;;;-1.86;100.00;101299.41;5048631;28;20025;-65
2023/12/02 09:35:33;;;;;;;35.60;16.35;;;;;;;-1.81;100.00;101302.34;5062903;28;20048;-65
2023/12/02 09:38:00;;;;;;;35.70;14.50;;;;;;;-1.73;100.00;101303.97;5054674;28;20352;-65
2023/12/02 09:40:43;;;;;;;34.40;14.60;;;;;;;-1.68;100.00;101319.63;5059232;28;20033;-67
2023/12/02 09:43:21;;;;;;;34.22;13.00;;;;;;;-1.68;100.00;101306.06;5049547;28;20069;-67
2023/12/02 09:46:04;;;;;;;41.03;17.50;;;;;;;-1.65;100.00;101313.78;5053032;28;20102;-67
2023/12/02 09:48:49;;;;;;;36.47;15.65;;;;;;;-1.60;100.00;101313.94;5055847;28;20115;-67
2023/12/02 09:51:48;;;;;;;35.22;14.50;;;;;;;-1.54;100.00;101296.84;5061252;28;20029;-63
2023/12/02 09:54:21;;;;;;;32.28;13.23;;;;;;;-1.44;100.00;101316.22;5057006;28;20033;-64
2023/12/02 09:56:54;;;;;;;35.63;14.80;;;;;;;-1.38;100.00;101308.25;5059109;28;20036;-64
2023/12/02 09:59:33;;;;;;;33.60;14.35;;;;;;;-1.35;100.00;101318.69;5057880;28;20078;-64
2023/12/02 10:02:03;;;;;;;33.67;14.05;;;;;;;-1.26;100.00;101317.41;5056942;28;20029;-63
2023/12/02 10:05:00;;;;;;;33.65;14.20;;;;;;;-1.16;100.00;101333.22;5051959;28;20056;-63
2023/12/02 10:07:36;;;;;;;33.38;13.07;;;;;;;-1.15;100.00;101329.44;5047812;28;20076;-63
2023/12/02 10:10:14;;;;;;;32.92;12.82;;;;;;;-1.16;100.00;101330.50;5051181;28;20039;-63
2023/12/02 10:12:59;;;;;;;34.08;13.77;;;;;;;-1.21;100.00;101330.31;5049117;28;20124;-64
2023/12/02 10:15:28;;;;;;;33.50;14.18;;;;;;;-1.19;100.00;101330.94;5053473;28;20048;-65
2023/12/02 10:18:00;;;;;;;33.40;15.60;;;;;;;-1.19;100.00;101318.19;5059471;28;20036;-64
2023/12/02 10:20:28;;;;;;;32.92;13.05;;;;;;;-1.08;100.00;101326.72;5054024;28;20044;-64
2023/12/02 10:23:28;;;;;;;33.58;13.98;;;;;;;-1.07;100.00;101329.19;5045574;28;20087;-64
2023/12/02 10:26:07;;;;;;;34.10;14.30;;;;;;;-1.14;100.00;101326.53;5051736;28;20052;-63
2023/12/02 10:28:46;;;;;;;34.63;13.30;;;;;;;-1.13;100.00;101325.47;5051604;28;20070;-64
2023/12/02 10:31:27;;;;;;;33.95;12.95;;;;;;;-1.16;100.00;101330.50;5060813;28;20039;-64
2023/12/02 10:34:08;;;;;;;32.78;13.95;;;;;;;-1.12;100.00;101337.19;5065150;28;20043;-63
2023/12/02 10:36:35;;;;;;;36.25;14.20;;;;;;;-1.15;100.00;101333.03;5054654;28;20032;-64
2023/12/02 10:39:13;;;;;;;33.97;14.05;;;;;;;-1.20;100.00;101326.56;5058491;28;20032;-65
2023/12/02 10:41:58;;;;;;;34.15;13.90;;;;;;;-1.19;100.00;101333.66;5064308;28;20028;-64
2023/12/02 10:44:24;;;;;;;35.47;13.35;;;;;;;-1.21;100.00;101330.31;5053843;28;20032;-64
2023/12/02 10:46:52;;;;;;;36.17;14.55;;;;;;;-1.27;100.00;101329.31;5057109;28;20035;-63
2023/12/02 10:49:18;;;;;;;36.20;15.13;;;;;;;-1.29;100.00;101331.41;5062494;28;20028;-64
2023/12/02 10:51:44;;;;;;;33.97;13.35;;;;;;;-1.24;100.00;101330.75;5057252;28;20446;-63
2023/12/02 10:54:15;;;;;;;37.05;14.98;;;;;;;-1.19;100.00;101325.53;5053894;28;20488;-64
2023/12/02 10:56:45;;;;;;;32.53;14.25;;;;;;;-1.17;100.00;101310.69;5055604;28;20041;-64
2023/12/02 10:59:10;;;;;;;34.17;14.30;;;;;;;-1.01;100.00;101320.22;5055437;28;20033;-64
2023/12/02 11:01:45;;;;;;;37.25;15.20;;;;;;;-0.89;100.00;101330.34;5057802;28;20135;-62